Aérodrome :
LOGIN :

S'inscrire | Disclaimer

   EN    FR    IT 

 










Légende :    VFR   VFR Marginal   IFR   IFR Intensif   IFR Très Intensif
Visi : 
Plafond : 
>= 8 km
>= 3000ft
5 à 8 km
1000 à 3000 ft
1500m à 5 km
500 à 1000 ft
800 à 1500m
200 à 500 ft
< 800m
< 200 ft
Symboles :   Orages  Brouillard  Fortes neiges  Fortes précipitations  Vent > 20 kt
SIGMETs :   Divers  Orages  Givrage  Turbulence  Onde Orograph.  Cendres Volcan.






- Altitude de l'aérodrome : 39 ft
- Code IATA : TRS


LIPQ - Friuli Venezia Giulia Apt. Trieste

DERNIER METAR :
  • 040250Z AUTO 10004KT 9999 FEW120/// 19/18 Q1002

METARs EXPIRÉS :
  • 040220Z AUTO 11007KT 9999 FEW007/// SCT009/// BKN130/// 19/18 Q1002
  • 040150Z AUTO 11006KT 9999 SCT078/// BKN130/// 19/18 Q1002 RETS
  • 040120Z AUTO 13006KT 9999 -TSRA FEW010/// BKN080/// BKN120/// 19/18 Q1002 RERA
  • 040050Z AUTO 08005KT 9999 RA VCTS FEW025/// OVC065/// 19/18 Q1002
  • 040020Z AUTO 04004KT 320V110 9999 -RA VCTS BKN092/// 20/17 Q1002

TAF TAF LIPQ
Valide du 04 à 00h jusqu'au 05 à 00h UTC


032300Z 0400/0424 VRB05KT 9999 BKN040
TEMPO 0400/0412 4000 TSRA



MET'MAP, la Météo Aéronautique d'un coup d'oeil ! - Copyright ORBIFLY Décembre 2007 - Disclaimer

ORBIFLY MET'MAP TEAM :

Programmation & Développement : Alexandra Zaïnal
Sur une idée originale de : Baudouin d'Aumeries
Assistance à la programmation : Marc-Olivier Méhu
Soutien technique & logistique : Manuel Goepfert

Contact : metmap@orbifly.com




SOURCES & CREDITS :

   NOAA